createdAt,value
2019-05-21T00:02:08.175Z,7.87
2019-05-21T00:04:38.749Z,7.80
2019-05-21T00:07:09.355Z,7.60
2019-05-21T00:09:39.838Z,8.03
2019-05-21T00:12:10.825Z,8.00
2019-05-21T00:14:41.441Z,8.23
2019-05-21T00:17:11.985Z,7.73
2019-05-21T00:19:42.497Z,9.03
2019-05-21T00:22:14.126Z,9.17
2019-05-21T00:24:44.715Z,8.33
2019-05-21T00:27:15.367Z,8.20
2019-05-21T00:30:21.889Z,8.07
2019-05-21T00:33:28.099Z,9.17
2019-05-21T00:36:35.783Z,9.47
2019-05-21T00:39:42.557Z,8.93
2019-05-21T00:42:11.577Z,9.90
2019-05-21T00:44:43.997Z,10.90
2019-05-21T00:47:14.714Z,11.60
2019-05-21T00:49:45.305Z,11.63
2019-05-21T00:52:15.768Z,11.60
2019-05-21T00:54:46.468Z,11.17
2019-05-21T00:57:16.948Z,12.03
2019-05-21T00:59:47.731Z,11.47
2019-05-21T01:02:18.251Z,12.20
2019-05-21T01:05:00.147Z,12.90
2019-05-21T01:07:20.894Z,14.37
2019-05-21T01:09:51.605Z,12.73
2019-05-21T01:12:22.109Z,13.47
2019-05-21T01:14:52.697Z,12.57
2019-05-21T01:17:23.236Z,13.57
2019-05-21T01:19:54.894Z,13.93
2019-05-21T01:22:25.380Z,14.77
2019-05-21T01:24:55.949Z,16.23
2019-05-21T01:27:26.453Z,16.50
2019-05-21T01:29:56.917Z,15.90
2019-05-21T01:32:27.578Z,15.53
2019-05-21T01:34:58.090Z,14.50
2019-05-21T01:37:28.531Z,16.17
2019-05-21T01:39:58.943Z,16.20
2019-05-21T01:42:29.406Z,17.57
2019-05-21T01:45:00.265Z,18.17
2019-05-21T01:47:30.933Z,18.53
2019-05-21T01:50:01.529Z,19.53
2019-05-21T01:52:32.028Z,20.27
2019-05-21T01:55:02.612Z,20.67
2019-05-21T01:57:33.217Z,21.73
2019-05-21T02:00:03.749Z,21.20
2019-05-21T02:02:34.357Z,20.63
2019-05-21T02:05:05.246Z,20.30
2019-05-21T02:07:35.809Z,21.63
2019-05-21T02:10:07.693Z,21.33
2019-05-21T02:12:38.360Z,21.93
2019-05-21T02:15:09.008Z,22.00
2019-05-21T02:17:40.573Z,19.73
2019-05-21T02:20:13.384Z,23.27
2019-05-21T02:22:43.993Z,20.77
2019-05-21T02:25:15.127Z,20.90
2019-05-21T02:27:46.943Z,19.43
2019-05-21T02:30:17.539Z,18.23
2019-05-21T02:32:48.262Z,18.13
2019-05-21T02:35:18.776Z,18.87
2019-05-21T02:37:49.296Z,18.47
2019-05-21T02:40:20.323Z,17.80
2019-05-21T02:42:50.805Z,18.70
2019-05-21T02:45:21.363Z,18.67
2019-05-21T02:47:52.069Z,18.23
2019-05-21T02:50:23.884Z,18.30
2019-05-21T02:52:54.365Z,21.37
2019-05-21T02:55:26.958Z,19.47
2019-05-21T02:57:57.478Z,17.63
2019-05-21T03:00:38.956Z,18.83
2019-05-21T03:03:10.906Z,17.10
2019-05-21T03:05:41.486Z,17.37
2019-05-21T03:08:12.137Z,17.50
2019-05-21T03:10:44.271Z,18.93
2019-05-21T03:13:15.384Z,17.63
2019-05-21T03:15:51.802Z,19.37
2019-05-21T03:18:23.974Z,17.23
2019-05-21T03:20:56.019Z,18.07
2019-05-21T03:23:28.573Z,15.80
2019-05-21T03:26:00.558Z,16.43
2019-05-21T03:28:31.125Z,16.90
2019-05-21T03:31:03.745Z,15.53
2019-05-21T03:33:34.909Z,15.20
2019-05-21T03:36:05.570Z,14.63
2019-05-21T03:38:36.061Z,15.10
2019-05-21T03:41:06.626Z,15.93
2019-05-21T03:43:37.288Z,15.30
2019-05-21T03:46:08.171Z,16.10
2019-05-21T03:48:38.808Z,16.50
2019-05-21T03:51:10.514Z,16.67
2019-05-21T03:53:42.666Z,16.60
2019-05-21T03:56:13.127Z,16.33
2019-05-21T03:58:43.791Z,17.40
2019-05-21T04:01:15.216Z,16.90
2019-05-21T04:03:45.844Z,17.50
2019-05-21T04:06:17.055Z,17.47
2019-05-21T04:08:47.791Z,16.33
2019-05-21T04:11:18.403Z,16.60
2019-05-21T04:13:48.990Z,15.80
2019-05-21T04:16:38.469Z,16.07
2019-05-21T04:19:12.977Z,15.77
2019-05-21T04:21:43.493Z,15.93
2019-05-21T04:24:14.109Z,14.87
2019-05-21T04:26:45.793Z,16.03
2019-05-21T04:29:16.372Z,15.17
2019-05-21T04:31:46.852Z,14.90
2019-05-21T04:34:17.400Z,15.17
2019-05-21T04:36:47.885Z,15.03
2019-05-21T04:39:19.902Z,16.27
2019-05-21T04:41:50.424Z,16.40
2019-05-21T04:44:21.206Z,14.60
2019-05-21T04:46:51.675Z,14.40
2019-05-21T04:49:22.247Z,14.97
2019-05-21T04:51:52.736Z,14.40
2019-05-21T04:54:23.404Z,13.53
2019-05-21T04:56:53.888Z,13.93
2019-05-21T04:59:24.494Z,13.70
2019-05-21T05:01:54.967Z,13.27
2019-05-21T05:04:27.755Z,14.50
2019-05-21T05:06:58.327Z,14.47
2019-05-21T05:09:28.966Z,14.57
2019-05-21T05:11:59.381Z,12.70
2019-05-21T05:14:29.836Z,13.70
2019-05-21T05:17:00.400Z,12.97
2019-05-21T05:19:30.921Z,13.73
2019-05-21T05:22:01.475Z,11.00
2019-05-21T05:24:33.019Z,11.13
2019-05-21T05:27:04.937Z,9.23
2019-05-21T05:29:35.582Z,9.33
2019-05-21T05:32:06.058Z,10.03
2019-05-21T05:34:36.627Z,10.10
2019-05-21T05:37:07.153Z,9.75
2019-05-21T05:39:38.130Z,10.67
2019-05-21T05:42:09.705Z,9.47
2019-05-21T05:44:41.304Z,8.50
2019-05-21T05:47:11.887Z,8.98
2019-05-21T05:49:46.176Z,8.43
2019-05-21T05:52:16.679Z,7.72
2019-05-21T05:54:47.213Z,7.97
2019-05-21T05:57:18.737Z,7.20
2019-05-21T05:59:49.345Z,7.12
2019-05-21T06:02:19.876Z,6.53
2019-05-21T06:04:50.650Z,8.50
2019-05-21T06:07:21.098Z,5.47
2019-05-21T06:09:51.703Z,5.80
2019-05-21T06:12:23.487Z,6.37
2019-05-21T06:14:53.957Z,6.03
2019-05-21T06:17:24.564Z,7.08
2019-05-21T06:19:55.026Z,5.65
2019-05-21T06:22:25.549Z,5.05
2019-05-21T06:24:56.022Z,4.90
2019-05-21T06:27:26.518Z,5.87
2019-05-21T06:29:57.093Z,4.12
2019-05-21T06:32:27.776Z,4.78
2019-05-21T06:34:58.436Z,4.15
2019-05-21T06:37:28.992Z,4.28
2019-05-21T06:39:59.505Z,5.15
2019-05-21T06:42:30.015Z,4.37
2019-05-21T06:45:00.512Z,6.25
2019-05-21T06:47:31.126Z,4.33
2019-05-21T06:50:01.585Z,3.30
2019-05-21T06:52:32.435Z,4.65
2019-05-21T06:55:03.094Z,3.15
2019-05-21T06:57:33.849Z,2.90
2019-05-21T07:00:04.637Z,3.02
2019-05-21T07:02:35.404Z,2.83
2019-05-21T07:05:06.256Z,3.10
2019-05-21T07:07:36.841Z,3.95
2019-05-21T07:10:07.933Z,5.53
2019-05-21T07:12:38.584Z,2.65
2019-05-21T07:15:09.811Z,2.72
2019-05-21T07:17:40.472Z,2.92
2019-05-21T07:20:12.026Z,2.27
2019-05-21T07:22:45.674Z,2.10
2019-05-21T07:25:16.779Z,2.47
2019-05-21T07:27:47.402Z,2.25
2019-05-21T07:30:19.287Z,2.00
2019-05-21T07:32:49.962Z,2.17
2019-05-21T07:35:20.458Z,4.30
2019-05-21T07:37:51.171Z,3.35
2019-05-21T07:40:21.760Z,3.55
2019-05-21T07:42:53.399Z,2.55
2019-05-21T07:45:23.970Z,3.05
2019-05-21T07:47:54.542Z,3.92
2019-05-21T07:50:25.022Z,2.03
2019-05-21T07:52:56.724Z,2.33
2019-05-21T07:55:27.276Z,5.73
2019-05-21T07:57:57.917Z,2.87
2019-05-21T08:00:29.480Z,2.20
2019-05-21T08:02:59.987Z,2.60
2019-05-21T08:05:30.689Z,2.60
2019-05-21T08:08:01.236Z,3.17
2019-05-21T08:10:32.973Z,6.77
2019-05-21T08:13:03.546Z,3.63
2019-05-21T08:15:34.108Z,2.80
2019-05-21T08:18:04.840Z,3.00
2019-05-21T08:20:35.518Z,3.13
2019-05-21T08:23:06.080Z,2.13
2019-05-21T08:25:36.582Z,2.62
2019-05-21T08:28:07.094Z,2.13
2019-05-21T08:30:37.762Z,2.97
2019-05-21T08:33:08.283Z,2.23
2019-05-21T08:35:38.788Z,2.03
2019-05-21T08:38:09.364Z,1.85
2019-05-21T08:40:40.896Z,1.43
2019-05-21T08:43:12.314Z,1.90
2019-05-21T08:45:42.898Z,2.03
2019-05-21T08:48:13.458Z,2.03
2019-05-21T08:50:44.204Z,2.10
2019-05-21T08:53:14.941Z,2.50
2019-05-21T08:55:45.549Z,2.30
2019-05-21T08:58:16.216Z,2.63
2019-05-21T09:00:46.767Z,1.70
2019-05-21T09:03:17.411Z,2.60
2019-05-21T09:05:47.914Z,1.83
2019-05-21T09:08:18.499Z,2.20
2019-05-21T09:10:49.132Z,2.10
2019-05-21T09:13:19.791Z,1.97
2019-05-21T09:15:50.311Z,2.03
2019-05-21T09:18:20.824Z,1.60
2019-05-21T09:20:51.377Z,2.33
2019-05-21T09:23:22.010Z,1.90
2019-05-21T09:25:53.873Z,1.57
2019-05-21T09:28:24.377Z,1.50
2019-05-21T09:30:54.847Z,1.30
2019-05-21T09:33:25.389Z,0.90
2019-05-21T09:35:55.976Z,1.03
2019-05-21T09:38:26.481Z,1.00
2019-05-21T09:40:56.995Z,1.50
2019-05-21T09:43:27.558Z,1.83
2019-05-21T09:45:59.364Z,1.60
2019-05-21T09:48:29.916Z,1.20
2019-05-21T09:51:00.515Z,1.20
2019-05-21T09:53:31.067Z,1.25
2019-05-21T09:56:20.445Z,1.07
2019-05-21T09:58:51.121Z,1.37
2019-05-21T10:01:47.500Z,2.13
2019-05-21T10:04:15.423Z,2.13
2019-05-21T10:06:45.902Z,1.50
2019-05-21T10:09:19.618Z,1.37
2019-05-21T10:11:50.296Z,1.10
2019-05-21T10:14:20.752Z,1.10
2019-05-21T10:16:51.296Z,0.93
2019-05-21T10:19:21.978Z,1.10
2019-05-21T10:21:52.568Z,1.47
2019-05-21T10:24:23.337Z,1.50
2019-05-21T10:26:53.914Z,1.33
2019-05-21T10:29:24.498Z,1.27
2019-05-21T10:31:55.139Z,1.70
2019-05-21T10:34:25.641Z,1.20
2019-05-21T10:36:56.172Z,1.53
2019-05-21T10:39:26.967Z,1.50
2019-05-21T10:41:57.518Z,1.30
2019-05-21T10:44:28.084Z,1.50
2019-05-21T10:46:58.570Z,1.50
2019-05-21T10:49:29.026Z,1.20
2019-05-21T10:51:59.622Z,1.22
2019-05-21T10:54:30.162Z,1.05
2019-05-21T10:57:00.787Z,1.87
2019-05-21T10:59:31.334Z,1.40
2019-05-21T11:02:15.571Z,1.50
2019-05-21T11:04:50.421Z,1.40
2019-05-21T11:07:21.786Z,1.30
2019-05-21T11:09:52.652Z,1.40
2019-05-21T11:12:23.232Z,1.60
2019-05-21T11:14:54.394Z,1.30
2019-05-21T11:17:24.920Z,1.50
2019-05-21T11:19:55.426Z,1.60
2019-05-21T11:22:26.141Z,1.23
2019-05-21T11:24:57.947Z,1.40
2019-05-21T11:27:28.449Z,1.30
2019-05-21T11:29:59.024Z,2.07
2019-05-21T11:32:29.434Z,1.30
2019-05-21T11:35:00.101Z,2.00
2019-05-21T11:37:30.648Z,1.37
2019-05-21T11:40:01.239Z,1.70
2019-05-21T11:42:31.856Z,1.77
2019-05-21T11:45:03.520Z,1.30
2019-05-21T11:47:34.092Z,1.63
2019-05-21T11:50:05.303Z,1.67
2019-05-21T11:52:35.987Z,1.40
2019-05-21T11:55:06.865Z,1.40
2019-05-21T11:57:37.501Z,6.50
2019-05-21T12:00:09.489Z,3.70
2019-05-21T12:02:40.089Z,2.10
2019-05-21T12:05:11.171Z,1.70
2019-05-21T12:07:41.736Z,1.60
2019-05-21T12:10:12.910Z,1.93
2019-05-21T12:12:43.673Z,1.40
2019-05-21T12:15:15.378Z,2.10
2019-05-21T12:17:46.026Z,2.00
2019-05-21T12:20:17.278Z,1.50
2019-05-21T12:22:47.837Z,1.77
2019-05-21T12:25:18.456Z,4.63
2019-05-21T12:27:49.138Z,2.70
2019-05-21T12:30:19.760Z,2.03
2019-05-21T12:32:50.397Z,2.10
2019-05-21T12:35:20.862Z,1.50
2019-05-21T12:37:51.365Z,1.60
2019-05-21T12:40:22.064Z,1.50
2019-05-21T12:42:52.592Z,1.57
2019-05-21T12:45:23.232Z,1.40
2019-05-21T12:47:53.866Z,2.00
2019-05-21T12:50:26.034Z,1.60
2019-05-21T12:52:56.594Z,1.80
2019-05-21T12:55:27.119Z,1.83
2019-05-21T12:57:57.711Z,1.90
2019-05-21T13:00:32.534Z,2.60
2019-05-21T13:03:03.161Z,1.63
2019-05-21T13:05:33.713Z,1.60
2019-05-21T13:08:04.337Z,1.57
2019-05-21T13:10:34.969Z,1.60
2019-05-21T13:13:05.739Z,1.77
2019-05-21T13:15:36.395Z,1.50
2019-05-21T13:18:07.191Z,1.70
2019-05-21T13:20:37.842Z,1.70
2019-05-21T13:23:08.783Z,1.70
2019-05-21T13:25:39.513Z,1.60
2019-05-21T13:28:10.179Z,1.70
2019-05-21T13:30:40.699Z,1.60
2019-05-21T13:33:11.242Z,1.70
2019-05-21T13:35:41.725Z,2.53
2019-05-21T13:38:13.557Z,2.00
2019-05-21T13:40:45.394Z,2.07
2019-05-21T13:43:15.893Z,2.30
2019-05-21T13:45:46.514Z,2.40
2019-05-21T13:48:17.130Z,2.90
2019-05-21T13:50:47.781Z,3.00
2019-05-21T13:53:19.542Z,3.57
2019-05-21T13:55:50.136Z,3.40
2019-05-21T13:58:20.957Z,3.13
2019-05-21T14:00:54.779Z,2.83
2019-05-21T14:03:25.517Z,2.70
2019-05-21T14:05:56.189Z,2.53
2019-05-21T14:08:26.833Z,2.30
2019-05-21T14:10:57.500Z,2.93
2019-05-21T14:13:28.533Z,2.90
2019-05-21T14:15:59.245Z,2.30
2019-05-21T14:18:29.899Z,2.70
2019-05-21T14:21:00.655Z,2.50
2019-05-21T14:23:31.275Z,2.43
2019-05-21T14:26:02.003Z,3.60
2019-05-21T14:28:35.644Z,4.57
2019-05-21T14:31:06.264Z,2.90
2019-05-21T14:33:37.002Z,2.37
2019-05-21T14:36:07.506Z,2.30
2019-05-21T14:38:39.688Z,2.93
2019-05-21T14:41:10.265Z,3.00
2019-05-21T14:43:40.769Z,2.50
2019-05-21T14:46:11.215Z,2.70
2019-05-21T14:48:41.924Z,3.03
2019-05-21T14:51:13.601Z,2.83
2019-05-21T14:53:44.272Z,3.20
2019-05-21T14:56:14.993Z,3.17
2019-05-21T14:58:45.504Z,3.03
2019-05-21T15:01:16.144Z,2.93
2019-05-21T15:03:46.685Z,3.00
2019-05-21T15:06:17.402Z,3.50
2019-05-21T15:08:47.961Z,3.20
2019-05-21T15:11:19.617Z,3.37
2019-05-21T15:13:50.297Z,3.30
2019-05-21T15:16:21.103Z,3.40
2019-05-21T15:18:51.727Z,8.03
2019-05-21T15:21:29.714Z,3.70
2019-05-21T15:24:02.033Z,4.13
2019-05-21T15:26:33.202Z,3.50
2019-05-21T15:29:03.794Z,3.87
2019-05-21T15:31:34.462Z,4.43
2019-05-21T15:34:05.101Z,3.57
2019-05-21T15:36:35.770Z,3.40
2019-05-21T15:39:07.920Z,3.03
2019-05-21T15:41:38.557Z,3.40
2019-05-21T15:44:11.012Z,3.70
2019-05-21T15:46:48.123Z,3.20
2019-05-21T15:49:14.598Z,3.13
2019-05-21T15:51:46.919Z,3.37
2019-05-21T15:54:18.518Z,3.07
2019-05-21T15:56:49.009Z,3.40
2019-05-21T15:59:19.678Z,4.23
2019-05-21T16:01:52.117Z,3.60
2019-05-21T16:04:22.422Z,8.07
2019-05-21T16:06:53.030Z,19.13
2019-05-21T16:09:23.506Z,5.00
2019-05-21T16:11:54.056Z,5.30
2019-05-21T16:14:27.479Z,4.60
2019-05-21T16:16:58.009Z,5.43
2019-05-21T16:19:29.002Z,5.93
2019-05-21T16:21:59.494Z,4.60
2019-05-21T16:24:30.075Z,5.87
2019-05-21T16:27:00.793Z,4.17
2019-05-21T16:29:31.375Z,4.50
2019-05-21T16:32:04.324Z,4.87
2019-05-21T16:34:34.850Z,5.07
2019-05-21T16:37:05.728Z,5.10
2019-05-21T16:39:37.507Z,6.10
2019-05-21T16:42:08.142Z,5.17
2019-05-21T16:44:39.383Z,5.10
2019-05-21T16:47:13.541Z,5.73
2019-05-21T16:49:44.268Z,5.07
2019-05-21T16:52:16.279Z,4.67
2019-05-21T16:54:49.030Z,5.17
2019-05-21T16:57:19.564Z,4.83
2019-05-21T16:59:50.050Z,5.27
2019-05-21T17:02:20.518Z,5.17
2019-05-21T17:04:51.033Z,4.60
2019-05-21T17:07:21.473Z,5.40
2019-05-21T17:09:52.052Z,6.20
2019-05-21T17:12:22.659Z,5.63
2019-05-21T17:14:55.207Z,4.53
2019-05-21T17:17:27.332Z,4.17
2019-05-21T17:20:00.284Z,4.60
2019-05-21T17:22:31.481Z,4.37
2019-05-21T17:25:03.323Z,4.70
2019-05-21T17:27:34.200Z,4.37
2019-05-21T17:30:05.041Z,4.40
2019-05-21T17:32:37.876Z,4.93
2019-05-21T17:35:09.280Z,5.87
2019-05-21T17:37:39.876Z,5.93
2019-05-21T17:40:13.431Z,6.07
2019-05-21T17:42:44.100Z,5.80
2019-05-21T17:45:15.919Z,6.17
2019-05-21T17:47:47.813Z,6.33
2019-05-21T17:50:18.821Z,6.83
2019-05-21T17:52:50.926Z,6.80
2019-05-21T17:55:21.669Z,6.97
2019-05-21T17:57:54.100Z,7.33
2019-05-21T18:00:42.388Z,7.20
2019-05-21T18:03:14.542Z,8.87
2019-05-21T18:05:45.829Z,8.77
2019-05-21T18:08:17.281Z,8.07
2019-05-21T18:10:49.001Z,8.87
2019-05-21T18:13:21.603Z,9.03
2019-05-21T18:15:52.280Z,9.70
2019-05-21T18:18:23.410Z,10.40
2019-05-21T18:20:55.098Z,10.60
2019-05-21T18:23:26.613Z,11.10
2019-05-21T18:25:57.199Z,13.50
2019-05-21T18:28:29.455Z,12.57
2019-05-21T18:31:00.344Z,13.33
2019-05-21T18:33:34.432Z,14.53
2019-05-21T18:36:06.352Z,14.83
2019-05-21T18:38:37.040Z,12.23
2019-05-21T18:41:07.560Z,12.77
2019-05-21T18:43:38.293Z,13.33
2019-05-21T18:46:08.886Z,18.43
2019-05-21T18:48:41.675Z,18.10
2019-05-21T18:51:12.124Z,14.20
2019-05-21T18:53:42.858Z,16.70
2019-05-21T18:56:14.810Z,16.80
2019-05-21T18:58:45.702Z,20.70
2019-05-21T19:01:16.473Z,22.07
2019-05-21T19:03:47.163Z,21.10
2019-05-21T19:06:17.816Z,18.63
2019-05-21T19:08:48.395Z,17.77
2019-05-21T19:11:19.107Z,18.17
2019-05-21T19:13:49.678Z,22.57
2019-05-21T19:16:21.432Z,24.07
2019-05-21T19:18:52.724Z,35.57
2019-05-21T19:21:23.491Z,41.40
2019-05-21T19:23:55.201Z,45.67
2019-05-21T19:26:25.822Z,56.67
2019-05-21T19:28:56.380Z,63.20
2019-05-21T19:31:26.879Z,60.33
2019-05-21T19:33:57.554Z,48.53
2019-05-21T19:36:29.982Z,33.10
2019-05-21T19:39:00.602Z,35.27
2019-05-21T19:41:32.822Z,48.57
2019-05-21T19:44:03.418Z,59.83
2019-05-21T19:46:34.068Z,59.50
2019-05-21T19:49:07.212Z,71.73
2019-05-21T19:51:40.086Z,73.60
2019-05-21T19:54:11.175Z,71.00
2019-05-21T19:56:41.835Z,61.87
2019-05-21T19:59:12.273Z,66.50
2019-05-21T20:01:43.074Z,69.10
2019-05-21T20:04:14.146Z,69.20
2019-05-21T20:06:44.816Z,65.20
2019-05-21T20:09:17.654Z,45.17
2019-05-21T20:11:48.208Z,29.17
2019-05-21T20:14:18.939Z,25.37
2019-05-21T20:16:49.987Z,19.67
2019-05-21T20:19:23.105Z,16.77
2019-05-21T20:21:54.487Z,14.80
2019-05-21T20:24:26.743Z,14.80
2019-05-21T20:27:01.475Z,13.43
2019-05-21T20:29:34.648Z,12.23
2019-05-21T20:32:10.393Z,11.80
2019-05-21T20:34:42.784Z,11.13
2019-05-21T20:37:15.794Z,10.90
2019-05-21T20:39:48.658Z,10.53
2019-05-21T20:42:27.550Z,10.50
2019-05-21T20:44:58.532Z,10.87
2019-05-21T20:47:31.670Z,11.00
2019-05-21T20:50:03.864Z,11.97
2019-05-21T20:52:36.842Z,12.73
2019-05-21T20:55:12.937Z,23.77
2019-05-21T20:57:43.865Z,29.03
2019-05-21T21:00:20.929Z,40.47
2019-05-21T21:02:52.581Z,42.27
2019-05-21T21:05:23.749Z,31.93
2019-05-21T21:07:59.374Z,50.70
2019-05-21T21:10:33.052Z,59.30
2019-05-21T21:13:07.942Z,45.53
2019-05-21T21:15:45.117Z,19.57
2019-05-21T21:18:15.728Z,15.70
2019-05-21T21:20:46.453Z,16.40
2019-05-21T21:23:18.981Z,16.93
2019-05-21T21:25:50.051Z,18.17
2019-05-21T21:28:20.979Z,17.50
2019-05-21T21:30:55.273Z,18.23
2019-05-21T21:33:33.283Z,19.73
2019-05-21T21:36:08.703Z,20.40
2019-05-21T21:38:42.204Z,20.30
2019-05-21T21:41:22.082Z,20.70
2019-05-21T21:43:54.686Z,22.53
2019-05-21T21:46:33.354Z,22.17
2019-05-21T21:49:05.058Z,20.83
2019-05-21T21:51:37.074Z,22.57
2019-05-21T21:54:08.678Z,22.73
2019-05-21T21:56:42.416Z,22.53
2019-05-21T21:59:13.137Z,23.00
2019-05-21T22:01:55.556Z,25.30
2019-05-21T22:04:36.530Z,24.50
2019-05-21T22:07:07.977Z,24.60
2019-05-21T22:09:40.241Z,27.57
2019-05-21T22:12:12.914Z,26.10
2019-05-21T22:14:51.884Z,28.70
2019-05-21T22:17:17.428Z,26.90
2019-05-21T22:19:49.393Z,27.60
2019-05-21T22:22:19.918Z,29.90
2019-05-21T22:24:51.232Z,27.17
2019-05-21T22:27:22.072Z,29.23
2019-05-21T22:29:52.621Z,32.57
2019-05-21T22:32:23.496Z,28.97
2019-05-21T22:34:53.953Z,28.07
2019-05-21T22:37:26.756Z,29.03
2019-05-21T22:39:58.254Z,27.33
2019-05-21T22:42:30.462Z,30.57
2019-05-21T22:45:07.954Z,30.57
2019-05-21T22:47:33.293Z,32.30
2019-05-21T22:50:04.019Z,38.73
2019-05-21T22:52:36.156Z,42.13
2019-05-21T22:55:07.221Z,45.80
2019-05-21T22:57:38.749Z,58.10
2019-05-21T23:00:11.151Z,51.50
2019-05-21T23:02:43.329Z,53.17
2019-05-21T23:05:14.662Z,48.53
2019-05-21T23:07:46.785Z,27.63
2019-05-21T23:10:19.218Z,31.67
2019-05-21T23:12:53.635Z,39.10
2019-05-21T23:15:25.563Z,27.00
2019-05-21T23:18:17.041Z,33.97
2019-05-21T23:21:03.218Z,35.13
2019-05-21T23:23:36.075Z,59.07
2019-05-21T23:26:08.704Z,39.70
2019-05-21T23:28:40.061Z,40.50
2019-05-21T23:31:12.461Z,34.30
2019-05-21T23:33:42.934Z,49.60
2019-05-21T23:36:13.830Z,55.73
2019-05-21T23:38:45.182Z,66.27
2019-05-21T23:41:16.451Z,64.10
2019-05-21T23:43:47.095Z,59.60
2019-05-21T23:46:17.755Z,65.13
2019-05-21T23:48:48.900Z,56.17
2019-05-21T23:51:19.424Z,55.03
2019-05-21T23:53:50.134Z,44.90
2019-05-21T23:56:22.062Z,34.93
2019-05-21T23:58:52.626Z,29.67
